Time;durP1;ratioP1;P1;durP2;ratioP2;P2;SDS_P1;SDS_P2;PMS_P1;PMS_P2;Temp;Humidity;BMP_temperature;BMP_pressure;BME280_temperature;BME280_humidity;BME280_pressure;Samples;Min_cycle;Max_cycle;Signal;HPM_P1;HPM_P2
2023/06/01 00:02:11;;;;;;;8.48;2.20;;;;;;;11.24;58.35;99557.73;1804505;78;21396;-61
2023/06/01 00:04:40;;;;;;;10.65;3.15;;;;;;;11.21;58.20;99555.28;1800041;78;21130;-61
2023/06/01 00:07:11;;;;;;;6.78;2.60;;;;;;;11.20;58.83;99550.97;1797452;78;20965;-61
2023/06/01 00:09:40;;;;;;;6.10;2.83;;;;;;;11.15;58.39;99547.77;1801286;78;21041;-61
2023/06/01 00:12:09;;;;;;;8.20;3.27;;;;;;;11.06;58.52;99546.48;1798986;77;20978;-61
2023/06/01 00:14:35;;;;;;;7.05;2.65;;;;;;;11.04;59.62;99544.88;1802574;78;21004;-60
2023/06/01 00:17:03;;;;;;;6.13;2.30;;;;;;;11.02;59.25;99541.48;1806214;78;20941;-60
2023/06/01 00:19:29;;;;;;;;;;;;;;;11.01;59.32;99543.70;1799929;78;21000;-61
2023/06/01 00:21:56;;;;;;;8.15;2.50;;;;;;;11.00;59.88;99536.80;1798091;78;20838;-60
2023/06/01 00:24:25;;;;;;;5.55;2.92;;;;;;;10.95;59.73;99531.36;1799657;78;20904;-60
2023/06/01 00:26:52;;;;;;;6.37;2.70;;;;;;;10.91;59.79;99540.27;1801313;78;20973;-61
2023/06/01 00:29:18;;;;;;;6.53;2.47;;;;;;;10.87;60.27;99523.08;1801858;78;20957;-60
2023/06/01 00:31:47;;;;;;;9.25;3.10;;;;;;;10.90;60.32;99529.91;1796444;78;21238;-61
2023/06/01 00:34:12;;;;;;;4.92;2.40;;;;;;;10.88;60.31;99534.36;1799569;78;21002;-60
2023/06/01 00:36:40;;;;;;;6.20;2.50;;;;;;;10.88;60.80;99522.14;1802655;77;21056;-60
2023/06/01 00:39:08;;;;;;;5.12;2.50;;;;;;;10.87;61.09;99527.00;1800646;78;21453;-60
2023/06/01 00:41:35;;;;;;;6.92;2.62;;;;;;;10.85;61.16;99525.38;1800367;78;21013;-61
2023/06/01 00:44:01;;;;;;;5.55;2.58;;;;;;;10.83;61.21;99521.53;1803366;78;20993;-60
2023/06/01 00:46:30;;;;;;;6.60;2.90;;;;;;;10.79;61.25;99514.79;1799184;78;21044;-60
2023/06/01 00:48:59;;;;;;;9.88;2.83;;;;;;;10.72;60.99;99519.93;1802610;77;21043;-60
2023/06/01 00:51:26;;;;;;;7.78;3.27;;;;;;;10.67;61.55;99521.92;1799575;77;21025;-61
2023/06/01 00:53:52;;;;;;;9.85;2.83;;;;;;;10.64;61.75;99526.88;1805719;78;21017;-60
2023/06/01 00:56:21;;;;;;;6.42;3.00;;;;;;;10.64;61.93;99518.17;1804293;78;21063;-60
2023/06/01 00:58:51;;;;;;;8.95;2.90;;;;;;;10.61;61.96;99518.33;1798279;78;21051;-61
2023/06/01 01:01:19;;;;;;;7.12;3.35;;;;;;;10.58;62.65;99515.88;1801736;78;21041;-61
2023/06/01 01:03:57;;;;;;;8.25;3.75;;;;;;;10.59;62.59;99511.05;1796352;78;21065;-61
2023/06/01 01:06:37;;;;;;;9.85;2.95;;;;;;;10.58;62.66;99510.66;1795049;78;21607;-60
2023/06/01 01:09:07;;;;;;;9.05;3.60;;;;;;;10.49;62.38;99510.19;1697729;82;21047;-60
2023/06/01 01:11:39;;;;;;;6.20;2.70;;;;;;;10.40;63.04;99502.83;1695538;82;21577;-61
2023/06/01 01:14:23;;;;;;;8.35;3.12;;;;;;;10.38;63.05;99499.45;1695686;82;21061;-60
2023/06/01 01:17:03;;;;;;;10.20;3.83;;;;;;;10.37;63.22;99497.77;1721139;81;21099;-60
2023/06/01 01:19:45;;;;;;;6.95;2.60;;;;;;;10.36;63.55;99489.53;1697105;83;21092;-60
2023/06/01 01:22:34;;;;;;;6.83;3.08;;;;;;;10.34;63.31;99495.31;1700571;82;21018;-60
2023/06/01 01:25:37;;;;;;;6.67;2.90;;;;;;;10.30;63.76;99493.30;1698391;83;21041;-61
2023/06/01 01:28:26;;;;;;;8.45;3.27;;;;;;;10.30;63.86;99491.16;1698813;82;21009;-61
2023/06/01 01:30:55;;;;;;;11.68;4.28;;;;;;;10.27;64.14;99488.70;1658306;84;21443;-60
2023/06/01 01:33:23;;;;;;;5.92;2.83;;;;;;;10.26;64.46;99485.68;1704489;82;21105;-60
2023/06/01 01:35:52;;;;;;;5.97;2.87;;;;;;;10.25;64.52;99491.80;1698631;83;21136;-60
2023/06/01 01:38:18;;;;;;;7.45;3.02;;;;;;;10.18;64.21;99489.13;1691941;82;21640;-60
2023/06/01 01:40:44;;;;;;;6.40;3.10;;;;;;;10.12;64.24;99493.34;1698477;82;20961;-60
2023/06/01 01:43:14;;;;;;;5.97;2.85;;;;;;;10.07;64.43;99495.70;1735599;78;21453;-60
2023/06/01 01:45:43;;;;;;;7.40;3.85;;;;;;;10.05;64.60;99494.95;1800825;78;21040;-60
2023/06/01 01:48:16;;;;;;;6.53;3.00;;;;;;;10.04;64.67;99498.47;1802629;78;22262;-60
2023/06/01 01:50:49;;;;;;;8.25;3.80;;;;;;;10.02;64.77;99500.30;1801974;78;21430;-60
2023/06/01 01:53:19;;;;;;;9.50;3.72;;;;;;;10.03;65.38;99502.00;1799224;78;20965;-60
2023/06/01 01:55:51;;;;;;;8.00;3.55;;;;;;;10.04;65.64;99498.47;1803109;78;20977;-60
2023/06/01 01:58:24;;;;;;;7.00;3.08;;;;;;;10.06;65.62;99499.71;1802480;78;21422;-60
2023/06/01 02:00:50;;;;;;;5.67;3.30;;;;;;;10.07;65.46;99498.31;1778028;78;21060;-60
2023/06/01 02:03:23;;;;;;;7.37;3.65;;;;;;;10.00;65.43;99502.16;1781778;78;21018;-61
2023/06/01 02:05:47;;;;;;;8.03;3.80;;;;;;;9.98;66.18;99493.55;1795025;78;20970;-61
2023/06/01 02:08:13;;;;;;;6.28;3.08;;;;;;;9.99;65.96;99491.31;1795770;77;21117;-61
2023/06/01 02:10:42;;;;;;;10.23;3.92;;;;;;;9.97;65.95;99497.09;1797727;77;20984;-60
2023/06/01 02:13:08;;;;;;;8.48;3.65;;;;;;;9.98;66.29;99498.77;1802523;78;20981;-61
2023/06/01 02:15:34;;;;;;;8.33;3.20;;;;;;;9.98;66.33;99497.47;1802014;78;21047;-60
2023/06/01 02:18:02;;;;;;;7.60;3.33;;;;;;;9.96;66.33;99496.69;1802984;78;20969;-60
2023/06/01 02:20:28;;;;;;;6.62;3.77;;;;;;;9.94;66.47;99494.64;1804233;78;20981;-61
2023/06/01 02:22:55;;;;;;;9.58;2.87;;;;;;;9.92;66.38;99491.25;1800327;78;21030;-60
2023/06/01 02:25:23;;;;;;;12.33;3.37;;;;;;;9.84;66.49;99495.98;1804755;77;20891;-60
2023/06/01 02:27:49;;;;;;;9.18;3.75;;;;;;;9.83;66.75;99486.45;1800115;78;21045;-61
2023/06/01 02:30:16;;;;;;;6.83;3.67;;;;;;;9.81;66.95;99493.53;1801291;78;20947;-61
2023/06/01 02:32:48;;;;;;;7.37;3.90;;;;;;;9.81;67.37;99485.70;1799808;78;21001;-60
2023/06/01 02:35:16;;;;;;;7.78;3.60;;;;;;;9.85;67.33;99487.23;1777164;78;20934;-61
2023/06/01 02:37:45;;;;;;;9.13;3.20;;;;;;;9.80;67.11;99480.08;1803889;77;20971;-60
2023/06/01 02:40:13;;;;;;;9.13;3.70;;;;;;;9.79;67.31;99479.70;1798725;78;21028;-61
2023/06/01 02:42:39;;;;;;;8.93;3.60;;;;;;;9.79;67.47;99474.49;1805266;78;21045;-60
2023/06/01 02:45:09;;;;;;;7.92;3.72;;;;;;;9.82;67.98;99476.95;1801288;78;20983;-60
2023/06/01 02:47:35;;;;;;;11.43;3.50;;;;;;;9.86;67.96;99476.73;1799664;78;20938;-60
2023/06/01 02:50:02;;;;;;;8.48;3.05;;;;;;;9.88;68.08;99468.83;1792402;78;20961;-61
2023/06/01 02:52:28;;;;;;;8.00;2.93;;;;;;;9.88;67.99;99462.77;1773299;78;21068;-61
2023/06/01 02:54:55;;;;;;;6.22;3.45;;;;;;;9.87;68.12;99465.84;1768764;79;20965;-61
2023/06/01 02:57:22;;;;;;;9.57;3.77;;;;;;;9.90;68.40;99460.48;1778324;79;20973;-60
2023/06/01 02:59:48;;;;;;;10.10;4.55;;;;;;;9.96;68.89;99464.08;1766330;79;21621;-61
2023/06/01 03:02:20;;;;;;;8.33;3.52;;;;;;;10.00;68.65;99455.20;1777426;78;20992;-60
2023/06/01 03:04:45;;;;;;;9.45;3.20;;;;;;;10.04;68.99;99451.52;1768652;79;21565;-60
2023/06/01 03:07:12;;;;;;;7.37;3.95;;;;;;;10.09;69.18;99452.13;1772040;79;21003;-60
2023/06/01 03:09:39;;;;;;;7.08;3.45;;;;;;;10.13;69.55;99447.60;1758953;80;21119;-60
2023/06/01 03:12:06;;;;;;;8.15;4.20;;;;;;;10.18;69.45;99456.52;1754998;80;20982;-60
2023/06/01 03:14:32;;;;;;;7.28;3.33;;;;;;;10.21;69.58;99453.28;1756074;80;20992;-60
2023/06/01 03:17:02;;;;;;;16.37;3.60;;;;;;;10.26;69.82;99459.59;1757135;80;21024;-61
2023/06/01 03:19:28;;;;;;;8.90;3.05;;;;;;;10.34;69.89;99464.00;1753667;80;21051;-61
2023/06/01 03:21:54;;;;;;;9.98;3.30;;;;;;;10.40;69.70;99458.46;1755397;80;21017;-61
2023/06/01 03:24:22;;;;;;;9.75;3.02;;;;;;;10.42;69.79;99451.41;1757311;80;21125;-61
2023/06/01 03:26:49;;;;;;;9.68;3.50;;;;;;;10.46;69.80;99446.40;1759914;80;21509;-61
2023/06/01 03:29:15;;;;;;;9.55;3.40;;;;;;;10.55;70.26;99445.55;1758832;80;20965;-61
2023/06/01 03:31:41;;;;;;;8.25;3.52;;;;;;;10.63;70.34;99443.39;1756529;80;21016;-61
2023/06/01 03:34:09;;;;;;;10.30;3.45;;;;;;;10.70;70.47;99442.16;1758777;80;20993;-61
2023/06/01 03:36:36;;;;;;;13.62;5.08;;;;;;;10.79;70.73;99439.05;1757774;79;21078;-61
2023/06/01 03:39:08;;;;;;;19.10;4.45;;;;;;;10.84;70.55;99442.27;1756776;80;21020;-61
2023/06/01 03:41:35;;;;;;;22.52;4.72;;;;;;;10.89;70.85;99444.16;1750823;80;20993;-61
2023/06/01 03:44:03;;;;;;;8.98;4.10;;;;;;;11.00;70.96;99436.22;1758926;80;21050;-61
2023/06/01 03:46:30;;;;;;;8.78;3.22;;;;;;;11.08;70.96;99436.66;1755447;80;21025;-60
2023/06/01 03:48:56;;;;;;;8.70;3.12;;;;;;;11.18;70.95;99435.24;1755136;80;20992;-61
2023/06/01 03:51:24;;;;;;;8.10;4.12;;;;;;;11.27;71.29;99426.89;1780745;78;21644;-61
2023/06/01 03:53:53;;;;;;;8.08;3.98;;;;;;;11.32;71.19;99434.02;1797716;78;21544;-61
2023/06/01 03:56:22;;;;;;;8.10;4.12;;;;;;;11.40;71.29;99425.30;1801382;78;21002;-61
2023/06/01 03:58:50;;;;;;;6.53;3.10;;;;;;;11.40;71.29;99425.30;1796977;78;21493;-62
2023/06/01 04:01:16;;;;;;;6.92;3.35;;;;;;;11.49;71.34;99420.48;1796884;78;20911;-62
2023/06/01 04:03:50;;;;;;;14.15;4.47;;;;;;;11.56;71.50;99421.81;1796134;78;21655;-61
2023/06/01 04:06:18;;;;;;;11.35;3.75;;;;;;;11.64;71.59;99422.23;1790678;78;20979;-62
2023/06/01 04:08:55;;;;;;;9.23;3.87;;;;;;;11.77;71.66;99421.08;1781814;78;20967;-61
2023/06/01 04:11:18;;;;;;;9.98;3.40;;;;;;;11.77;71.66;99421.08;1799182;78;21049;-61
2023/06/01 04:13:46;;;;;;;11.68;4.62;;;;;;;11.83;71.76;99428.10;1764394;78;20975;-61
2023/06/01 04:16:14;;;;;;;8.58;3.58;;;;;;;11.83;71.99;99407.17;1790803;78;21041;-61
2023/06/01 04:18:43;;;;;;;12.33;3.90;;;;;;;12.03;72.13;99418.30;1798221;78;21667;-61
2023/06/01 04:21:10;;;;;;;12.68;3.67;;;;;;;12.11;72.57;99395.14;1798497;78;21449;-60
2023/06/01 04:23:37;;;;;;;9.50;3.83;;;;;;;12.11;72.57;99395.14;1796701;78;20998;-60
2023/06/01 04:26:08;;;;;;;6.90;3.00;;;;;;;12.26;72.04;99412.55;1801885;78;20945;-61
2023/06/01 04:28:33;;;;;;;7.87;3.50;;;;;;;12.39;72.08;99402.67;1796258;78;20955;-60
2023/06/01 04:31:02;;;;;;;11.53;3.77;;;;;;;12.39;72.04;99385.66;1797575;78;21004;-61
2023/06/01 04:33:36;;;;;;;13.45;3.77;;;;;;;12.54;72.03;99397.34;1788656;78;21012;-60
2023/06/01 04:36:00;;;;;;;11.03;4.17;;;;;;;12.66;72.36;99407.56;1797577;78;21011;-61
2023/06/01 04:38:32;;;;;;;12.00;3.27;;;;;;;12.75;72.32;99404.38;1798684;77;21010;-61
2023/06/01 04:40:58;;;;;;;6.10;3.12;;;;;;;12.89;72.40;99407.93;1774028;79;21005;-61
2023/06/01 04:43:24;;;;;;;9.78;3.37;;;;;;;13.08;72.30;99413.72;1797554;78;21037;-61
2023/06/01 04:45:51;;;;;;;19.95;4.65;;;;;;;13.29;72.42;99414.64;1795839;78;21023;-61
2023/06/01 04:48:18;;;;;;;8.68;3.33;;;;;;;13.53;72.45;99414.39;1799883;78;21032;-61
2023/06/01 04:50:46;;;;;;;9.85;3.52;;;;;;;13.71;72.05;99396.60;1796779;78;20982;-61
2023/06/01 04:53:13;;;;;;;7.92;3.60;;;;;;;13.91;72.26;99409.72;1785718;78;21033;-61
2023/06/01 04:55:39;;;;;;;9.93;4.00;;;;;;;14.12;72.04;99410.58;1798331;78;20947;-61
2023/06/01 04:58:11;;;;;;;10.80;4.45;;;;;;;14.29;71.92;99402.41;1793303;78;21391;-61
2023/06/01 05:00:37;;;;;;;11.68;3.70;;;;;;;14.48;71.63;99401.97;1790707;78;21416;-61
2023/06/01 05:03:03;;;;;;;10.70;4.50;;;;;;;14.59;71.45;99398.19;1803081;78;21106;-61
2023/06/01 05:05:30;;;;;;;18.23;3.92;;;;;;;14.68;71.35;99398.86;1798308;78;20948;-61
2023/06/01 05:07:58;;;;;;;9.58;3.90;;;;;;;14.84;71.25;99393.36;1770856;78;21029;-61
2023/06/01 05:10:24;;;;;;;13.25;4.30;;;;;;;14.87;70.90;99395.80;1786252;78;21056;-61
2023/06/01 05:12:56;;;;;;;7.37;3.85;;;;;;;14.95;71.00;99391.29;1782037;78;21093;-61
2023/06/01 05:15:21;;;;;;;8.85;3.40;;;;;;;15.08;71.16;99387.33;1751110;80;21030;-61
2023/06/01 05:17:48;;;;;;;11.67;3.90;;;;;;;15.17;70.87;99393.24;1754007;80;20986;-61
2023/06/01 05:20:14;;;;;;;7.05;3.25;;;;;;;15.23;70.38;99391.48;1796421;78;20892;-61
2023/06/01 05:22:43;;;;;;;10.40;3.67;;;;;;;15.26;70.67;99393.89;1794331;78;21565;-61
2023/06/01 05:25:09;;;;;;;9.63;3.17;;;;;;;15.38;70.90;99393.02;1796172;78;21018;-62
2023/06/01 05:27:36;;;;;;;44.10;5.83;;;;;;;15.63;70.86;99388.61;1790189;77;20997;-61
2023/06/01 05:30:05;;;;;;;8.98;3.98;;;;;;;15.89;70.58;99386.22;1793050;78;21462;-61
2023/06/01 05:32:33;;;;;;;7.03;3.60;;;;;;;15.98;69.87;99388.64;1785187;78;21012;-61
2023/06/01 05:35:00;;;;;;;11.75;3.42;;;;;;;16.02;69.99;99386.61;1790163;78;21565;-61
2023/06/01 05:37:26;;;;;;;10.85;3.30;;;;;;;16.17;69.92;99381.52;1791720;78;21049;-61
2023/06/01 05:39:53;;;;;;;20.92;4.40;;;;;;;16.32;69.80;99379.02;1790809;78;20981;-61
2023/06/01 05:42:19;;;;;;;84.67;7.43;;;;;;;16.38;69.14;99379.51;1798679;78;21072;-61
2023/06/01 05:44:45;;;;;;;13.98;4.37;;;;;;;16.41;69.37;99382.77;1800790;78;21010;-61
2023/06/01 05:47:11;;;;;;;10.80;3.60;;;;;;;16.51;69.09;99381.57;1791458;78;21100;-61
2023/06/01 05:49:38;;;;;;;8.03;3.02;;;;;;;16.46;68.38;99378.44;1783803;78;21006;-60
2023/06/01 05:52:05;;;;;;;9.45;3.27;;;;;;;16.46;68.66;99387.66;1797007;78;21033;-61
2023/06/01 05:54:32;;;;;;;;;;;;;;;16.57;68.54;99379.77;1809282;78;20986;-61
2023/06/01 05:57:00;;;;;;;10.45;3.30;;;;;;;16.69;68.34;99384.11;1787321;78;20153;-60
2023/06/01 05:59:27;;;;;;;13.08;3.72;;;;;;;16.80;68.03;99379.80;1809008;78;21603;-60
2023/06/01 06:01:53;;;;;;;9.93;3.17;;;;;;;16.88;68.03;99384.00;1804903;78;21084;-60
2023/06/01 06:04:20;;;;;;;8.75;3.60;;;;;;;16.91;67.75;99382.44;1797613;78;21026;-60
2023/06/01 06:06:46;;;;;;;8.23;3.10;;;;;;;17.09;67.88;99386.27;1802450;78;20985;-59
2023/06/01 06:09:15;;;;;;;8.70;2.77;;;;;;;17.20;67.51;99383.61;1805216;79;21050;-59
2023/06/01 06:11:43;;;;;;;12.07;3.33;;;;;;;17.27;67.11;99385.75;1806366;78;21038;-60
2023/06/01 06:14:11;;;;;;;7.45;2.72;;;;;;;17.31;66.79;99384.52;1801446;78;21046;-60
2023/06/01 06:16:39;;;;;;;7.80;2.55;;;;;;;17.35;66.46;99380.70;1785368;79;21056;-60
2023/06/01 06:19:06;;;;;;;;;;;;;;;17.49;66.25;99375.13;1802752;78;21065;-60
2023/06/01 06:21:35;;;;;;;9.83;2.87;;;;;;;17.59;65.74;99373.43;1786651;78;20545;-59
2023/06/01 06:24:01;;;;;;;8.08;3.12;;;;;;;17.62;65.91;99374.49;1808305;78;21439;-60
2023/06/01 06:26:28;;;;;;;7.75;2.30;;;;;;;17.72;65.35;99381.65;1802798;78;20961;-60
2023/06/01 06:28:55;;;;;;;9.67;3.10;;;;;;;17.87;65.52;99379.11;1806694;77;21531;-61
2023/06/01 06:31:22;;;;;;;11.60;3.10;;;;;;;18.02;65.12;99375.17;1798410;78;21254;-61
2023/06/01 06:33:48;;;;;;;15.83;3.63;;;;;;;18.11;64.82;99379.68;1799611;78;21033;-61
2023/06/01 06:36:16;;;;;;;14.13;3.02;;;;;;;18.23;64.56;99383.58;1803050;78;20974;-60
2023/06/01 06:38:44;;;;;;;14.35;3.85;;;;;;;18.46;64.65;99381.16;1804087;78;21816;-61
2023/06/01 06:41:11;;;;;;;69.10;5.25;;;;;;;18.72;64.26;99374.11;1805262;78;21000;-61
2023/06/01 06:43:38;;;;;;;9.15;2.75;;;;;;;19.01;63.78;99380.36;1803451;78;21081;-61
2023/06/01 06:46:06;;;;;;;13.18;2.98;;;;;;;19.23;63.16;99377.15;1783526;79;21741;-61
2023/06/01 06:48:32;;;;;;;13.57;2.43;;;;;;;19.41;62.72;99376.84;1805872;78;21089;-60
2023/06/01 06:50:59;;;;;;;16.65;3.05;;;;;;;19.80;62.70;99368.95;1805799;77;21782;-61
2023/06/01 06:53:29;;;;;;;12.98;2.87;;;;;;;20.13;62.14;99370.78;1768977;77;21088;-61
2023/06/01 06:55:58;;;;;;;11.83;2.80;;;;;;;20.53;62.03;99371.92;1788941;78;20943;-61
2023/06/01 06:58:24;;;;;;;13.00;2.65;;;;;;;21.04;61.73;99376.37;1790634;77;20978;-61
2023/06/01 07:00:50;;;;;;;14.07;2.57;;;;;;;21.53;61.65;99374.27;1794583;78;20993;-61
2023/06/01 07:03:23;;;;;;;19.47;3.20;;;;;;;22.24;61.53;99373.41;1796156;78;21100;-61
2023/06/01 07:05:48;;;;;;;22.75;3.58;;;;;;;22.92;60.07;99363.80;1799893;77;20951;-61
2023/06/01 07:08:16;;;;;;;6.10;2.30;;;;;;;23.57;59.42;99371.16;1770896;78;21466;-61
2023/06/01 07:10:42;;;;;;;8.70;2.70;;;;;;;24.14;59.73;99372.52;1794574;78;22410;-61
2023/06/01 07:13:09;;;;;;;7.67;2.47;;;;;;;25.03;59.25;99367.14;1795992;77;20940;-61
2023/06/01 07:15:35;;;;;;;36.85;4.47;;;;;;;25.88;57.43;99360.48;1786304;78;21017;-59
2023/06/01 07:18:01;;;;;;;8.88;2.42;;;;;;;26.70;57.08;99357.83;1786080;78;20982;-59
2023/06/01 07:20:28;;;;;;;10.50;2.40;;;;;;;26.97;55.74;99363.52;1795294;78;21040;-59
2023/06/01 07:22:54;;;;;;;14.10;4.22;;;;;;;27.70;54.97;99364.38;1799523;76;21060;-59
2023/06/01 07:25:21;;;;;;;8.00;3.00;;;;;;;28.36;54.46;99363.27;1795803;77;20979;-59
2023/06/01 07:27:49;;;;;;;31.57;4.85;;;;;;;28.63;53.18;99367.81;1788965;78;21057;-59
2023/06/01 07:30:18;;;;;;;17.30;3.42;;;;;;;28.93;51.67;99367.53;1797226;77;21151;-59
2023/06/01 07:32:45;;;;;;;8.65;2.70;;;;;;;29.36;51.43;99370.02;1796727;78;21049;-60
2023/06/01 07:35:12;;;;;;;14.30;3.42;;;;;;;30.06;51.39;99367.33;1795082;78;21017;-59
2023/06/01 07:37:43;;;;;;;10.63;2.75;;;;;;;30.71;50.38;99360.72;1796727;77;21571;-60
2023/06/01 07:40:11;;;;;;;20.43;3.42;;;;;;;31.22;49.84;99359.08;1795150;77;21021;-59
2023/06/01 07:42:37;;;;;;;26.93;3.42;;;;;;;31.41;47.93;99368.14;1791600;78;21093;-60
2023/06/01 07:45:05;;;;;;;21.42;3.35;;;;;;;31.97;47.05;99361.14;1797381;78;20993;-60
2023/06/01 07:47:32;;;;;;;13.83;3.50;;;;;;;32.47;45.44;99365.17;1764559;79;21007;-60
2023/06/01 07:50:00;;;;;;;9.30;2.27;;;;;;;32.97;45.90;99363.67;1761372;79;21342;-60
2023/06/01 07:52:26;;;;;;;;;;;;;;;33.38;43.41;99370.21;1767127;79;21097;-60
2023/06/01 07:54:52;;;;;;;9.65;3.15;;;;;;;33.41;41.92;99371.95;1723327;81;20179;-60
2023/06/01 07:57:24;;;;;;;5.05;2.42;;;;;;;33.38;42.12;99359.39;1801901;77;20984;-60
2023/06/01 07:59:47;;;;;;;16.00;2.52;;;;;;;33.71;41.73;99361.64;1806369;77;20988;-60
2023/06/01 08:02:13;;;;;;;;;;;;;;;34.17;40.53;99365.51;1776080;77;21049;-60
2023/06/01 08:04:40;;;;;;;7.08;2.10;;;;;;;34.50;39.02;99360.81;1797621;77;20171;-60
2023/06/01 08:07:07;;;;;;;6.30;2.17;;;;;;;34.86;38.81;99354.82;1797927;77;20914;-60
2023/06/01 08:09:34;;;;;;;8.25;2.65;;;;;;;35.28;38.37;99365.44;1808225;78;21170;-60
2023/06/01 08:12:00;;;;;;;9.10;2.67;;;;;;;35.49;37.31;99360.37;1806288;77;20979;-59
2023/06/01 08:14:27;;;;;;;9.23;2.55;;;;;;;35.78;36.50;99356.58;1806026;77;20981;-60
2023/06/01 08:16:54;;;;;;;7.35;2.20;;;;;;;35.95;35.83;99361.20;1814397;77;20910;-60
2023/06/01 08:19:22;;;;;;;12.85;3.10;;;;;;;36.03;34.91;99358.88;1810202;78;21571;-60
2023/06/01 08:21:48;;;;;;;7.97;2.58;;;;;;;36.36;34.43;99357.77;1813039;77;21012;-60
2023/06/01 08:24:17;;;;;;;7.83;2.45;;;;;;;36.49;33.57;99353.31;1810233;77;20996;-60
2023/06/01 08:26:46;;;;;;;7.05;2.00;;;;;;;36.27;31.67;99355.48;1805413;77;21029;-61
2023/06/01 08:29:13;;;;;;;16.45;2.50;;;;;;;36.27;31.67;99355.48;1805230;78;21104;-60
2023/06/01 08:31:41;;;;;;;12.63;2.58;;;;;;;36.62;29.85;99352.98;1808689;77;20997;-60
2023/06/01 08:34:11;;;;;;;5.62;2.58;;;;;;;36.62;29.85;99352.98;1776349;78;20959;-60
2023/06/01 08:36:42;;;;;;;16.93;2.75;;;;;;;36.24;30.00;99349.19;1808680;77;21103;-60
2023/06/01 08:39:23;;;;;;;9.35;2.50;;;;;;;36.62;29.59;99361.14;1772441;77;20992;-60
2023/06/01 08:42:12;;;;;;;12.20;2.62;;;;;;;37.33;29.67;99357.08;1805400;77;21052;-60
2023/06/01 08:44:40;;;;;;;9.48;2.40;;;;;;;37.70;28.73;99343.28;1805504;77;21240;-60
2023/06/01 08:47:09;;;;;;;7.30;2.45;;;;;;;37.80;27.13;99340.66;1801208;77;21615;-61
2023/06/01 08:49:36;;;;;;;5.85;2.22;;;;;;;37.76;27.20;99338.19;1814276;76;20954;-61
2023/06/01 08:52:06;;;;;;;14.18;2.90;;;;;;;37.68;27.21;99341.38;1809150;77;21085;-61
2023/06/01 08:54:42;;;;;;;22.30;3.67;;;;;;;37.63;26.58;99330.70;1795724;78;20950;-61
2023/06/01 08:57:09;;;;;;;9.20;2.58;;;;;;;37.34;26.20;99341.59;1800989;78;20979;-61
2023/06/01 08:59:36;;;;;;;7.92;2.72;;;;;;;36.88;25.76;99343.23;1801556;78;21111;-59
2023/06/01 09:02:03;;;;;;;9.73;2.45;;;;;;;36.98;24.87;99337.09;1791966;78;21072;-59
2023/06/01 09:04:35;;;;;;;19.55;3.58;;;;;;;37.11;25.39;99342.18;1796431;78;21124;-59
2023/06/01 09:07:02;;;;;;;28.92;6.08;;;;;;;37.40;25.22;99339.20;1802226;77;20967;-59
2023/06/01 09:09:29;;;;;;;29.92;5.95;;;;;;;37.74;24.72;99344.42;1798981;78;20969;-59
2023/06/01 09:12:21;;;;;;;11.93;3.52;;;;;;;38.35;25.01;99342.15;1803849;78;21023;-59
2023/06/01 09:14:48;;;;;;;49.63;4.80;;;;;;;39.42;24.36;99336.86;1803376;77;21096;-61
2023/06/01 09:17:17;;;;;;;21.70;4.05;;;;;;;39.69;23.10;99332.47;1799834;78;21104;-59
2023/06/01 09:19:44;;;;;;;10.10;2.80;;;;;;;39.53;23.62;99334.41;1799351;78;21123;-59
2023/06/01 09:22:15;;;;;;;34.40;10.08;;;;;;;39.59;23.07;99338.77;1798020;78;21060;-59
2023/06/01 09:24:40;;;;;;;10.63;2.90;;;;;;;39.66;22.79;99328.41;1802923;77;20991;-59
2023/06/01 09:27:07;;;;;;;7.53;2.65;;;;;;;39.86;22.83;99321.29;1801698;78;21283;-59
2023/06/01 09:29:34;;;;;;;13.35;2.58;;;;;;;40.24;22.15;99327.54;1800992;78;21546;-59
2023/06/01 09:32:01;;;;;;;8.55;3.00;;;;;;;40.05;21.40;99330.56;1801279;78;20990;-59
2023/06/01 09:34:27;;;;;;;10.43;2.45;;;;;;;39.66;21.52;99333.88;1799084;78;20998;-59
2023/06/01 09:36:55;;;;;;;408.68;73.30;;;;;;;39.82;21.52;99331.96;1798142;78;21041;-59
2023/06/01 09:39:23;;;;;;;44.98;5.60;;;;;;;40.21;21.38;99332.20;1801605;78;21565;-60
2023/06/01 09:42:06;;;;;;;8.80;2.80;;;;;;;40.58;21.17;99326.88;1802044;78;21005;-59
2023/06/01 09:44:38;;;;;;;9.80;2.25;;;;;;;40.85;20.73;99329.25;1799520;77;21033;-59
2023/06/01 09:47:10;;;;;;;9.18;2.45;;;;;;;40.86;20.35;99328.70;1799059;78;20919;-59
2023/06/01 09:49:44;;;;;;;8.03;2.85;;;;;;;40.93;20.38;99330.59;1790687;78;21344;-59
2023/06/01 09:52:16;;;;;;;5.97;2.33;;;;;;;41.09;19.90;99328.06;1797726;78;21084;-59
2023/06/01 09:54:48;;;;;;;6.33;2.52;;;;;;;41.05;19.87;99331.61;1795581;78;21045;-60
2023/06/01 09:57:24;;;;;;;16.02;2.92;;;;;;;41.17;20.01;99332.10;1795625;78;21065;-59
2023/06/01 09:59:57;;;;;;;22.67;4.62;;;;;;;41.97;19.96;99334.53;1798766;77;21577;-59
2023/06/01 10:02:24;;;;;;;9.93;3.00;;;;;;;42.21;19.16;99330.98;1797161;78;20993;-59
2023/06/01 10:04:57;;;;;;;8.88;2.70;;;;;;;41.84;19.49;99336.53;1802725;78;21012;-59
2023/06/01 10:07:29;;;;;;;5.78;2.10;;;;;;;41.63;19.37;99333.17;1797145;77;20981;-59
2023/06/01 10:09:58;;;;;;;10.68;2.75;;;;;;;41.57;19.20;99335.70;1796326;77;21035;-59
2023/06/01 10:12:26;;;;;;;5.62;2.20;;;;;;;42.11;19.12;99342.08;1799015;77;20982;-60
2023/06/01 10:14:52;;;;;;;8.40;2.55;;;;;;;41.89;18.88;99335.12;1804124;77;21596;-60
2023/06/01 10:17:20;;;;;;;29.92;3.85;;;;;;;42.26;18.74;99333.67;1798575;77;21095;-60
2023/06/01 10:19:48;;;;;;;17.70;2.50;;;;;;;41.90;18.54;99334.07;1800220;78;21485;-59
2023/06/01 10:22:17;;;;;;;13.60;2.83;;;;;;;41.17;17.92;99339.50;1802790;78;20954;-60
2023/06/01 10:24:44;;;;;;;6.40;2.42;;;;;;;40.54;18.45;99338.13;1792823;78;21537;-59
2023/06/01 10:27:31;;;;;;;26.60;4.30;;;;;;;40.02;18.44;99336.58;1803334;78;21008;-60
2023/06/01 10:29:58;;;;;;;18.35;3.58;;;;;;;39.81;18.25;99339.34;1796977;78;21630;-61
2023/06/01 10:32:44;;;;;;;18.95;3.12;;;;;;;38.98;18.19;99333.19;1804266;78;20942;-59
2023/06/01 10:35:30;;;;;;;25.88;3.87;;;;;;;38.61;18.43;99338.22;1788939;78;20958;-59
2023/06/01 10:38:12;;;;;;;10.53;3.00;;;;;;;38.00;18.31;99353.09;1798059;77;20997;-59
2023/06/01 10:40:41;;;;;;;9.30;3.05;;;;;;;37.71;18.88;99342.22;1795138;77;21044;-59
2023/06/01 10:43:10;;;;;;;85.17;7.58;;;;;;;38.14;19.06;99351.28;1796850;78;21056;-59
2023/06/01 10:45:40;;;;;;;11.18;3.15;;;;;;;39.14;18.92;99356.70;1792370;78;20966;-59
2023/06/01 10:48:11;;;;;;;13.53;3.30;;;;;;;38.94;18.65;99346.01;1800268;77;21576;-60
2023/06/01 10:50:40;;;;;;;14.18;3.00;;;;;;;39.35;18.91;99346.14;1795910;79;21041;-59
2023/06/01 10:53:26;;;;;;;65.20;5.65;;;;;;;39.42;18.67;99352.69;1792297;78;21078;-59
2023/06/01 10:56:24;;;;;;;10.85;2.98;;;;;;;39.26;18.43;99355.91;1785793;78;21033;-59
2023/06/01 10:59:07;;;;;;;31.65;3.58;;;;;;;38.00;18.61;99366.72;1788582;78;20983;-59
2023/06/01 11:01:40;;;;;;;20.97;4.40;;;;;;;38.08;18.88;99371.41;1784046;78;21040;-59
2023/06/01 11:04:07;;;;;;;10.38;3.67;;;;;;;37.47;18.65;99375.19;1784393;78;21080;-59
2023/06/01 11:06:37;;;;;;;12.45;2.62;;;;;;;35.40;18.71;99377.59;1793996;78;21037;-59
2023/06/01 11:09:10;;;;;;;153.93;11.30;;;;;;;35.40;18.71;99377.59;1771118;78;21037;-59
2023/06/01 11:11:58;;;;;;;13.25;3.45;;;;;;;34.05;19.26;99376.31;1784626;78;21228;-58
2023/06/01 11:14:29;;;;;;;15.23;3.00;;;;;;;33.46;19.43;99376.66;1788838;78;21053;-60
2023/06/01 11:16:56;;;;;;;28.17;5.50;;;;;;;33.37;20.04;99382.92;1788247;78;21116;-59
2023/06/01 11:19:25;;;;;;;24.63;3.72;;;;;;;33.08;20.26;99388.63;1791558;78;20985;-59
2023/06/01 11:22:04;;;;;;;13.40;2.85;;;;;;;32.75;20.48;99389.80;1785041;78;21549;-59
2023/06/01 11:24:35;;;;;;;17.85;4.05;;;;;;;32.75;20.70;99389.80;1763904;79;21445;-59
2023/06/01 11:27:07;;;;;;;24.23;3.55;;;;;;;31.91;20.94;99388.99;1774839;78;20979;-59
2023/06/01 11:29:37;;;;;;;8.65;2.40;;;;;;;31.37;21.00;99401.48;1786800;78;21399;-59
2023/06/01 11:32:06;;;;;;;10.75;3.25;;;;;;;30.41;21.47;99403.47;1785507;78;21090;-59
2023/06/01 11:34:38;;;;;;;16.75;3.60;;;;;;;29.15;21.70;99412.11;1783202;78;21001;-59
2023/06/01 11:37:19;;;;;;;9.70;2.90;;;;;;;28.23;22.29;99413.17;1767649;78;21058;-58
2023/06/01 11:39:46;;;;;;;24.43;4.03;;;;;;;27.69;23.21;99417.68;1782505;78;21040;-59
2023/06/01 11:42:21;;;;;;;10.95;2.90;;;;;;;27.89;23.05;99399.95;1795326;78;22208;-58